createdAt,value
2019-05-18T00:01:45.171Z,8.07
2019-05-18T00:04:14.727Z,7.70
2019-05-18T00:06:44.249Z,8.53
2019-05-18T00:09:13.897Z,6.93
2019-05-18T00:11:43.455Z,7.10
2019-05-18T00:14:13.048Z,7.73
2019-05-18T00:16:43.958Z,6.97
2019-05-18T00:19:13.598Z,7.53
2019-05-18T00:21:43.570Z,6.33
2019-05-18T00:24:13.325Z,5.93
2019-05-18T00:26:43.024Z,7.50
2019-05-18T00:29:12.615Z,7.20
2019-05-18T00:31:42.191Z,6.97
2019-05-18T00:34:14.268Z,7.13
2019-05-18T00:36:44.336Z,5.90
2019-05-18T00:39:14.024Z,6.37
2019-05-18T00:41:46.213Z,6.43
2019-05-18T00:44:28.224Z,7.00
2019-05-18T00:46:58.561Z,6.40
2019-05-18T00:49:29.460Z,6.90
2019-05-18T00:52:02.986Z,6.43
2019-05-18T00:54:33.699Z,6.73
2019-05-18T00:57:08.357Z,6.33
2019-05-18T00:59:39.697Z,6.40
2019-05-18T01:02:10.584Z,6.13
2019-05-18T01:04:40.136Z,6.57
2019-05-18T01:07:09.686Z,6.27
2019-05-18T01:09:40.653Z,6.83
2019-05-18T01:12:13.909Z,6.63
2019-05-18T01:14:43.581Z,6.73
2019-05-18T01:17:14.716Z,6.77
2019-05-18T01:19:45.362Z,6.60
2019-05-18T01:22:15.025Z,6.67
2019-05-18T01:24:44.996Z,6.07
2019-05-18T01:27:16.658Z,6.00
2019-05-18T01:29:47.041Z,6.20
2019-05-18T01:32:16.635Z,6.43
2019-05-18T01:34:46.230Z,6.10
2019-05-18T01:37:15.884Z,5.77
2019-05-18T01:39:45.417Z,6.83
2019-05-18T01:42:16.935Z,6.33
2019-05-18T01:44:46.433Z,6.83
2019-05-18T01:47:18.070Z,5.67
2019-05-18T01:49:48.650Z,6.67
2019-05-18T01:52:18.144Z,6.13
2019-05-18T01:54:48.006Z,6.03
2019-05-18T01:57:17.527Z,5.97
2019-05-18T01:59:47.055Z,6.10
2019-05-18T02:02:18.213Z,6.70
2019-05-18T02:04:49.994Z,6.80
2019-05-18T02:07:20.449Z,6.70
2019-05-18T02:09:50.101Z,6.40
2019-05-18T02:12:19.698Z,6.20
2019-05-18T02:14:49.248Z,6.03
2019-05-18T02:17:18.826Z,6.03
2019-05-18T02:19:48.382Z,5.93
2019-05-18T02:22:18.707Z,5.80
2019-05-18T02:24:48.372Z,5.20
2019-05-18T02:27:18.278Z,5.10
2019-05-18T02:29:50.375Z,4.87
2019-05-18T02:32:20.220Z,4.73
2019-05-18T02:34:50.039Z,5.23
2019-05-18T02:37:19.613Z,5.60
2019-05-18T02:39:51.404Z,6.77
2019-05-18T02:42:24.915Z,6.10
2019-05-18T02:44:54.684Z,6.17
2019-05-18T02:47:25.108Z,6.07
2019-05-18T02:49:54.684Z,6.07
2019-05-18T02:52:24.374Z,7.30
2019-05-18T02:54:54.799Z,6.00
2019-05-18T02:57:24.567Z,6.00
2019-05-18T02:59:54.373Z,6.20
2019-05-18T03:02:25.450Z,6.60
2019-05-18T03:04:55.473Z,6.37
2019-05-18T03:07:33.385Z,6.90
2019-05-18T03:10:03.031Z,6.03
2019-05-18T03:12:32.985Z,6.77
2019-05-18T03:15:06.873Z,6.60
2019-05-18T03:17:36.769Z,6.97
2019-05-18T03:20:07.766Z,7.97
2019-05-18T03:22:37.568Z,7.10
2019-05-18T03:25:07.587Z,6.33
2019-05-18T03:27:38.325Z,7.17
2019-05-18T03:30:08.229Z,6.50
2019-05-18T03:32:39.030Z,7.60
2019-05-18T03:35:12.784Z,7.00
2019-05-18T03:37:43.135Z,7.20
2019-05-18T03:40:13.264Z,7.10
2019-05-18T03:42:42.983Z,7.27
2019-05-18T03:45:13.670Z,6.53
2019-05-18T03:47:47.456Z,6.57
2019-05-18T03:50:17.425Z,6.37
2019-05-18T03:52:47.149Z,6.47
2019-05-18T03:55:18.229Z,6.93
2019-05-18T03:57:50.545Z,6.53
2019-05-18T04:00:21.018Z,5.93
2019-05-18T04:02:50.711Z,7.27
2019-05-18T04:05:20.363Z,6.30
2019-05-18T04:07:50.105Z,6.17
2019-05-18T04:10:26.865Z,6.10
2019-05-18T04:12:56.593Z,5.70
2019-05-18T04:15:26.405Z,6.23
2019-05-18T04:17:56.241Z,6.77
2019-05-18T04:20:27.173Z,6.53
2019-05-18T04:22:56.870Z,7.30
2019-05-18T04:25:27.210Z,6.87
2019-05-18T04:27:56.984Z,7.10
2019-05-18T04:30:26.610Z,6.57
2019-05-18T04:32:57.224Z,6.83
2019-05-18T04:35:31.044Z,6.83
2019-05-18T04:38:00.700Z,6.03
2019-05-18T04:40:30.379Z,6.17
2019-05-18T04:43:02.901Z,5.87
2019-05-18T04:45:32.476Z,6.03
2019-05-18T04:48:02.060Z,5.80
2019-05-18T04:50:35.306Z,6.67
2019-05-18T04:53:05.527Z,6.63
2019-05-18T04:55:35.660Z,6.57
2019-05-18T04:58:09.180Z,6.73
2019-05-18T05:00:39.269Z,7.20
2019-05-18T05:03:09.727Z,6.87
2019-05-18T05:05:40.191Z,6.63
2019-05-18T05:08:12.593Z,6.60
2019-05-18T05:10:42.261Z,7.17
2019-05-18T05:13:11.882Z,6.73
2019-05-18T05:15:41.524Z,6.47
2019-05-18T05:18:14.001Z,6.50
2019-05-18T05:20:43.556Z,6.10
2019-05-18T05:23:13.263Z,6.47
2019-05-18T05:25:43.003Z,6.63
2019-05-18T05:28:13.043Z,6.43
2019-05-18T05:30:42.829Z,6.43
2019-05-18T05:33:14.850Z,7.60
2019-05-18T05:35:44.356Z,7.17
2019-05-18T05:38:13.904Z,7.67
2019-05-18T05:40:43.604Z,6.67
2019-05-18T05:43:13.152Z,6.87
2019-05-18T05:45:42.737Z,7.50
2019-05-18T05:48:12.602Z,6.80
2019-05-18T05:50:42.445Z,6.20
2019-05-18T05:53:15.865Z,7.13
2019-05-18T05:55:45.374Z,6.77
2019-05-18T05:58:15.503Z,7.03
2019-05-18T06:00:45.176Z,6.63
2019-05-18T06:03:14.989Z,7.07
2019-05-18T06:05:46.308Z,7.57
2019-05-18T06:08:15.901Z,6.83
2019-05-18T06:10:46.400Z,7.07
2019-05-18T06:13:16.940Z,7.23
2019-05-18T06:15:46.734Z,6.63
2019-05-18T06:18:16.534Z,7.70
2019-05-18T06:20:51.607Z,6.90
2019-05-18T06:23:17.270Z,6.83
2019-05-18T06:25:46.642Z,6.60
2019-05-18T06:28:16.177Z,7.83
2019-05-18T06:30:45.735Z,7.83
2019-05-18T06:33:15.321Z,7.57
2019-05-18T06:35:44.760Z,7.83
2019-05-18T06:38:14.871Z,7.73
2019-05-18T06:40:44.493Z,6.67
2019-05-18T06:43:16.064Z,6.73
2019-05-18T06:45:45.675Z,7.57
2019-05-18T06:48:15.127Z,8.57
2019-05-18T06:50:44.858Z,7.90
2019-05-18T06:53:14.444Z,7.80
2019-05-18T06:55:43.977Z,8.17
2019-05-18T06:58:15.471Z,7.67
2019-05-18T07:00:45.846Z,8.57
2019-05-18T07:03:18.281Z,8.07
2019-05-18T07:06:43.589Z,8.63
2019-05-18T07:09:14.462Z,8.23
2019-05-18T07:12:26.792Z,8.83
2019-05-18T07:20:21.056Z,8.27
2019-05-18T07:22:50.617Z,9.07
2019-05-18T07:25:20.064Z,8.53
2019-05-18T07:27:49.548Z,8.77
2019-05-18T07:30:31.216Z,9.13
2019-05-18T07:33:00.710Z,9.07
2019-05-18T07:35:30.247Z,9.03
2019-05-18T07:38:02.649Z,8.17
2019-05-18T07:40:32.194Z,7.77
2019-05-18T07:43:04.659Z,7.57
2019-05-18T07:45:35.542Z,8.03
2019-05-18T07:48:05.089Z,7.87
2019-05-18T07:50:34.622Z,7.40
2019-05-18T07:53:04.586Z,7.43
2019-05-18T07:55:34.169Z,7.93
2019-05-18T07:58:06.088Z,7.20
2019-05-18T08:00:35.576Z,7.27
2019-05-18T08:03:05.079Z,6.57
2019-05-18T08:05:34.687Z,6.50
2019-05-18T08:08:04.222Z,7.20
2019-05-18T08:10:38.444Z,6.80
2019-05-18T08:13:09.256Z,6.80
2019-05-18T08:15:39.267Z,6.67
2019-05-18T08:18:10.377Z,6.10
2019-05-18T08:20:40.511Z,6.77
2019-05-18T08:23:10.131Z,6.90
2019-05-18T08:25:42.702Z,6.20
2019-05-18T08:28:14.064Z,6.17
2019-05-18T08:30:44.027Z,5.60
2019-05-18T08:33:13.897Z,6.50
2019-05-18T08:35:44.208Z,7.00
2019-05-18T08:38:13.895Z,6.33
2019-05-18T08:40:43.727Z,6.10
2019-05-18T08:43:13.795Z,6.67
2019-05-18T08:45:44.493Z,7.10
2019-05-18T08:48:14.941Z,6.90
2019-05-18T08:50:46.900Z,6.17
2019-05-18T08:53:16.769Z,6.30
2019-05-18T08:55:51.225Z,6.17
2019-05-18T08:58:22.617Z,6.03
2019-05-18T09:00:53.304Z,6.47
2019-05-18T09:03:24.182Z,6.47
2019-05-18T09:05:53.993Z,6.47
2019-05-18T09:08:23.665Z,6.17
2019-05-18T09:10:53.751Z,6.53
2019-05-18T09:13:23.417Z,6.50
2019-05-18T09:15:54.955Z,6.03
2019-05-18T09:18:24.762Z,6.07
2019-05-18T09:21:03.773Z,7.67
2019-05-18T09:23:34.890Z,6.70
2019-05-18T09:26:04.868Z,6.67
2019-05-18T09:28:45.383Z,6.50
2019-05-18T09:31:18.996Z,4.30
2019-05-18T09:34:00.099Z,6.33
2019-05-18T09:36:29.871Z,3.90
2019-05-18T09:39:00.778Z,5.30
2019-05-18T09:41:31.793Z,4.93
2019-05-18T09:44:00.141Z,4.67
2019-05-18T09:46:40.943Z,5.03
2019-05-18T09:49:13.964Z,4.60
2019-05-18T09:52:00.392Z,2.83
2019-05-18T09:54:31.065Z,3.73
2019-05-18T09:57:03.856Z,3.90
2019-05-18T09:59:45.548Z,2.50
2019-05-18T10:02:15.157Z,3.00
2019-05-18T10:04:45.340Z,3.90
2019-05-18T10:07:15.133Z,4.53
2019-05-18T10:09:46.341Z,4.20
2019-05-18T10:12:16.401Z,3.17
2019-05-18T10:14:46.304Z,2.97
2019-05-18T10:17:16.014Z,2.67
2019-05-18T10:19:45.603Z,2.80
2019-05-18T10:22:15.857Z,3.30
2019-05-18T10:24:45.607Z,3.30
2019-05-18T10:27:16.135Z,4.10
2019-05-18T10:29:46.742Z,4.23
2019-05-18T10:32:18.779Z,3.93
2019-05-18T10:52:43.182Z,3.77
2019-05-18T11:15:19.341Z,4.57
2019-05-18T11:39:11.036Z,6.20
2019-05-18T11:41:44.429Z,5.90
2019-05-18T11:44:19.956Z,7.10
2019-05-18T11:47:27.181Z,5.60
2019-05-18T11:50:02.575Z,5.77
2019-05-18T11:52:33.716Z,5.70
2019-05-18T11:55:03.317Z,5.67
2019-05-18T11:57:32.754Z,6.70
2019-05-18T12:00:09.173Z,5.67
2019-05-18T12:02:40.606Z,2.80
2019-05-18T12:05:12.916Z,6.27
2019-05-18T12:07:42.578Z,6.60
2019-05-18T12:10:12.950Z,6.23
2019-05-18T12:12:42.382Z,4.50
2019-05-18T12:15:13.440Z,4.70
2019-05-18T12:17:42.893Z,4.33
2019-05-18T12:20:13.795Z,4.70
2019-05-18T12:22:44.478Z,4.20
2019-05-18T12:25:14.927Z,3.90
2019-05-18T12:27:44.702Z,4.53
2019-05-18T12:30:17.771Z,5.17
2019-05-18T12:32:47.170Z,3.97
2019-05-18T12:35:17.007Z,4.70
2019-05-18T12:37:46.405Z,4.47
2019-05-18T12:40:18.819Z,4.37
2019-05-18T12:42:49.075Z,3.37
2019-05-18T12:45:20.180Z,3.70
2019-05-18T12:47:49.670Z,3.90
2019-05-18T12:50:21.317Z,3.23
2019-05-18T12:52:50.935Z,2.97
2019-05-18T12:55:21.035Z,3.97
2019-05-18T12:57:50.488Z,3.60
2019-05-18T13:00:21.704Z,4.70
2019-05-18T13:02:51.339Z,5.23
2019-05-18T13:05:20.893Z,6.43
2019-05-18T13:07:53.391Z,6.53
2019-05-18T13:10:26.535Z,5.40
2019-05-18T13:12:56.095Z,6.50
2019-05-18T13:15:25.788Z,4.40
2019-05-18T13:17:55.200Z,5.87
2019-05-18T13:20:24.889Z,5.90
2019-05-18T13:22:54.404Z,5.80
2019-05-18T13:25:23.940Z,5.87
2019-05-18T13:27:53.543Z,4.87
2019-05-18T13:30:23.155Z,5.17
2019-05-18T13:32:52.655Z,5.87
2019-05-18T13:35:22.532Z,4.57
2019-05-18T13:37:51.870Z,5.80
2019-05-18T13:40:23.248Z,5.33
2019-05-18T13:42:52.637Z,6.87
2019-05-18T13:45:22.250Z,7.00
2019-05-18T13:47:51.710Z,7.47
2019-05-18T13:50:21.303Z,8.40
2019-05-18T13:52:50.759Z,9.23
2019-05-18T13:55:20.491Z,7.70
2019-05-18T13:57:50.000Z,7.40
2019-05-18T14:00:20.471Z,8.33
2019-05-18T14:02:50.135Z,9.70
2019-05-18T14:05:19.643Z,9.53
2019-05-18T14:07:50.124Z,9.50
2019-05-18T14:10:20.544Z,8.63
2019-05-18T14:12:49.972Z,9.40
2019-05-18T14:15:22.686Z,9.60
2019-05-18T14:17:50.910Z,9.40
2019-05-18T14:20:36.234Z,8.37
2019-05-18T14:23:05.767Z,9.40
2019-05-18T14:25:36.163Z,10.33
2019-05-18T14:28:09.108Z,10.33
2019-05-18T14:30:38.750Z,7.37
2019-05-18T14:33:11.840Z,9.67
2019-05-18T14:35:41.306Z,9.77
2019-05-18T14:38:11.777Z,8.77
2019-05-18T14:40:41.271Z,9.00
2019-05-18T14:43:10.717Z,11.00
2019-05-18T14:45:40.444Z,8.10
2019-05-18T14:48:15.125Z,7.77
2019-05-18T14:50:44.760Z,6.87
2019-05-18T14:53:14.345Z,6.53
2019-05-18T14:55:43.896Z,5.47
2019-05-18T14:58:13.359Z,5.73
2019-05-18T15:00:43.231Z,5.03
2019-05-18T15:03:12.813Z,5.63
2019-05-18T15:05:42.305Z,4.43
2019-05-18T15:08:11.881Z,4.40
2019-05-18T15:10:41.563Z,3.33
2019-05-18T15:13:11.142Z,3.70
2019-05-18T15:15:40.703Z,3.37
2019-05-18T15:18:10.195Z,4.00
2019-05-18T15:20:39.685Z,3.87
2019-05-18T15:23:09.204Z,4.37
2019-05-18T15:25:50.080Z,3.87
2019-05-18T15:28:09.929Z,4.73
2019-05-18T15:30:39.422Z,4.37
2019-05-18T15:33:08.896Z,4.60
2019-05-18T15:35:40.177Z,4.47
2019-05-18T15:38:09.706Z,3.97
2019-05-18T15:40:39.134Z,4.53
2019-05-18T15:43:08.578Z,4.53
2019-05-18T15:45:37.962Z,5.03
2019-05-18T15:48:07.643Z,4.97
2019-05-18T15:50:37.056Z,4.90
2019-05-18T15:53:06.493Z,5.23
2019-05-18T15:55:36.197Z,5.07
2019-05-18T15:58:05.709Z,4.87
2019-05-18T16:00:35.200Z,4.40
2019-05-18T16:03:04.603Z,4.53
2019-05-18T16:05:34.191Z,5.37
2019-05-18T16:08:08.381Z,4.73
2019-05-18T16:10:38.052Z,4.57
2019-05-18T16:13:07.402Z,4.93
2019-05-18T16:15:36.953Z,4.53
2019-05-18T16:18:06.436Z,4.13
2019-05-18T16:20:35.852Z,4.87
2019-05-18T16:23:05.277Z,4.90
2019-05-18T16:25:34.736Z,5.40
2019-05-18T16:28:04.304Z,4.30
2019-05-18T16:30:33.792Z,4.27
2019-05-18T16:33:03.255Z,4.50
2019-05-18T16:35:32.634Z,5.00
2019-05-18T16:38:02.229Z,3.90
2019-05-18T16:40:31.634Z,4.30
2019-05-18T16:43:03.496Z,4.33
2019-05-18T16:45:33.980Z,4.17
2019-05-18T16:48:06.788Z,4.00
2019-05-18T16:50:36.182Z,4.37
2019-05-18T16:53:05.790Z,4.60
2019-05-18T16:55:35.327Z,3.97
2019-05-18T16:58:04.665Z,4.30
2019-05-18T17:00:34.029Z,4.13
2019-05-18T17:03:03.376Z,4.37
2019-05-18T17:05:32.734Z,4.10
2019-05-18T17:08:02.113Z,3.63
2019-05-18T17:10:31.577Z,4.00
2019-05-18T17:13:00.893Z,3.80
2019-05-18T17:15:30.358Z,3.90
2019-05-18T17:17:59.666Z,4.10
2019-05-18T17:20:29.069Z,4.10
2019-05-18T17:23:01.003Z,3.17
2019-05-18T17:25:30.353Z,3.50
2019-05-18T17:27:59.739Z,2.97
2019-05-18T17:30:31.196Z,3.10
2019-05-18T17:33:00.621Z,3.40
2019-05-18T17:35:30.103Z,3.37
2019-05-18T17:37:59.847Z,3.23
2019-05-18T17:40:30.921Z,4.60
2019-05-18T17:43:00.578Z,3.90
2019-05-18T17:45:30.202Z,3.20
2019-05-18T17:47:59.599Z,3.80
2019-05-18T17:50:29.992Z,3.83
2019-05-18T17:52:59.310Z,4.40
2019-05-18T17:55:28.673Z,3.80
2019-05-18T17:57:58.057Z,4.23
2019-05-18T18:00:27.406Z,4.03
2019-05-18T18:02:56.685Z,4.30
2019-05-18T18:05:28.842Z,3.77
2019-05-18T18:07:58.138Z,4.13
2019-05-18T18:10:27.467Z,3.77
2019-05-18T18:12:56.781Z,4.17
2019-05-18T18:15:26.183Z,3.70
2019-05-18T18:17:55.554Z,3.90
2019-05-18T18:20:26.410Z,5.27
2019-05-18T18:22:56.286Z,4.60
2019-05-18T18:25:25.654Z,4.63
2019-05-18T18:27:55.138Z,5.43
2019-05-18T18:30:24.625Z,4.20
2019-05-18T18:32:56.395Z,5.80
2019-05-18T18:35:25.805Z,4.97
2019-05-18T18:37:55.198Z,5.77
2019-05-18T18:40:24.536Z,4.10
2019-05-18T18:42:53.976Z,3.77
2019-05-18T18:45:23.446Z,3.80
2019-05-18T18:47:53.041Z,4.70
2019-05-18T18:50:22.392Z,4.70
2019-05-18T18:52:51.886Z,4.13
2019-05-18T18:55:21.303Z,4.47
2019-05-18T18:57:50.734Z,4.73
2019-05-18T19:00:20.924Z,5.23
2019-05-18T19:02:50.386Z,4.47
2019-05-18T19:05:19.946Z,5.70
2019-05-18T19:07:49.336Z,4.83
2019-05-18T19:10:18.776Z,4.57
2019-05-18T19:12:48.209Z,5.40
2019-05-18T19:15:18.323Z,5.37
2019-05-18T19:17:47.747Z,5.10
2019-05-18T19:20:18.136Z,5.30
2019-05-18T19:22:47.535Z,5.73
2019-05-18T19:25:17.177Z,5.10
2019-05-18T19:27:54.430Z,4.37
2019-05-18T19:30:17.977Z,4.37
2019-05-18T19:32:47.505Z,4.60
2019-05-18T19:35:16.897Z,4.40
2019-05-18T19:37:46.274Z,4.10
2019-05-18T19:40:16.626Z,4.40
2019-05-18T19:42:45.973Z,3.43
2019-05-18T19:45:15.773Z,4.67
2019-05-18T19:47:45.149Z,3.73
2019-05-18T19:50:14.835Z,4.40
2019-05-18T19:52:44.240Z,4.87
2019-05-18T19:55:17.251Z,4.33
2019-05-18T19:57:46.648Z,3.30
2019-05-18T20:00:18.846Z,3.30
2019-05-18T20:02:48.237Z,3.20
2019-05-18T20:05:17.655Z,3.07
2019-05-18T20:07:47.073Z,3.27
2019-05-18T20:10:16.669Z,3.40
2019-05-18T20:12:46.039Z,2.90
2019-05-18T20:15:17.852Z,3.90
2019-05-18T20:17:47.261Z,3.47
2019-05-18T20:20:16.980Z,4.03
2019-05-18T20:22:46.425Z,3.80
2019-05-18T20:25:17.196Z,2.90
2019-05-18T20:27:46.528Z,3.20
2019-05-18T20:30:16.086Z,2.87
2019-05-18T20:32:45.499Z,3.13
2019-05-18T20:35:18.391Z,2.97
2019-05-18T20:37:47.842Z,2.77
2019-05-18T20:40:17.345Z,3.10
2019-05-18T20:42:46.780Z,2.37
2019-05-18T20:45:16.255Z,2.10
2019-05-18T20:47:45.838Z,2.47
2019-05-18T20:50:16.307Z,2.33
2019-05-18T20:52:45.686Z,2.60
2019-05-18T20:55:15.602Z,2.53
2019-05-18T20:57:45.099Z,2.37
2019-05-18T21:00:15.875Z,2.87
2019-05-18T21:02:47.457Z,2.67
2019-05-18T21:05:16.939Z,2.87
2019-05-18T21:07:46.434Z,2.73
2019-05-18T21:10:16.107Z,2.33
2019-05-18T21:12:45.905Z,2.43
2019-05-18T21:15:15.860Z,2.23
2019-05-18T21:17:46.728Z,2.40
2019-05-18T21:20:16.128Z,1.73
2019-05-18T21:22:45.584Z,2.40
2019-05-18T21:25:15.159Z,2.10
2019-05-18T21:27:44.571Z,2.40
2019-05-18T21:30:14.581Z,2.03
2019-05-18T21:32:43.950Z,2.63
2019-05-18T21:35:13.305Z,2.73
2019-05-18T21:37:42.707Z,2.70
2019-05-18T21:40:12.266Z,2.50
2019-05-18T21:42:41.779Z,2.33
2019-05-18T21:45:11.546Z,2.37
2019-05-18T21:47:41.157Z,2.07
2019-05-18T21:50:10.510Z,2.10
2019-05-18T21:52:42.011Z,2.00
2019-05-18T21:55:11.029Z,2.13
2019-05-18T21:57:40.501Z,1.93
2019-05-18T22:00:10.150Z,2.17
2019-05-18T22:02:39.562Z,2.20
2019-05-18T22:05:09.022Z,2.63
2019-05-18T22:07:38.623Z,2.60
2019-05-18T22:10:24.442Z,2.30
2019-05-18T22:12:40.524Z,1.90
2019-05-18T22:15:10.619Z,2.40
2019-05-18T22:17:57.561Z,2.17
2019-05-18T22:20:27.007Z,2.17
2019-05-18T22:22:56.339Z,1.90
2019-05-18T22:25:25.706Z,1.77
2019-05-18T22:27:55.097Z,2.10
2019-05-18T22:30:24.586Z,2.23
2019-05-18T22:32:54.096Z,1.80
2019-05-18T22:35:24.515Z,2.00
2019-05-18T22:37:53.942Z,1.90
2019-05-18T22:40:23.389Z,2.00
2019-05-18T22:42:52.825Z,1.80
2019-05-18T22:45:22.323Z,2.80
2019-05-18T22:47:51.714Z,1.70
2019-05-18T22:50:21.128Z,1.80
2019-05-18T22:52:50.599Z,1.93
2019-05-18T22:55:19.968Z,1.80
2019-05-18T22:57:49.451Z,1.77
2019-05-18T23:00:19.025Z,2.10
2019-05-18T23:02:48.485Z,2.00
2019-05-18T23:05:18.088Z,1.70
2019-05-18T23:07:47.504Z,1.70
2019-05-18T23:10:17.029Z,1.80
2019-05-18T23:12:46.423Z,2.10
2019-05-18T23:15:16.723Z,1.90
2019-05-18T23:17:46.188Z,1.73
2019-05-18T23:20:15.630Z,2.00
2019-05-18T23:22:45.185Z,1.97
2019-05-18T23:25:15.072Z,2.13
2019-05-18T23:27:44.479Z,1.97
2019-05-18T23:30:15.382Z,1.93
2019-05-18T23:32:44.857Z,2.10
2019-05-18T23:35:14.471Z,2.27
2019-05-18T23:37:44.063Z,2.40
2019-05-18T23:40:14.518Z,2.03
2019-05-18T23:42:44.154Z,1.87
2019-05-18T23:45:15.399Z,1.83
2019-05-18T23:47:44.885Z,2.17
2019-05-18T23:50:14.598Z,2.27
2019-05-18T23:52:44.139Z,2.20
2019-05-18T23:55:14.092Z,2.50
2019-05-18T23:57:43.646Z,2.30
